Map

Track Data

SID SEASON NUMBER BASIN SUBBASIN NAME ISO_TIME NATURE LAT LON WMO_WIND WMO_PRES WMO_AGENCY TRACK_TYPE DIST2LAND LANDFALL IFLAG USA_AGENCY USA_ATCF_ID USA_LAT USA_LON USA_RECORD USA_STATUS USA_WIND USA_PRES USA_SSHS USA_R34_NE USA_R34_SE USA_R34_SW USA_R34_NW USA_R50_NE USA_R50_SE USA_R50_SW USA_R50_NW USA_R64_NE USA_R64_SE USA_R64_SW USA_R64_NW USA_POCI USA_ROCI USA_RMW USA_EYE TOKYO_LAT TOKYO_LON TOKYO_GRADE TOKYO_WIND TOKYO_PRES TOKYO_R50_DIR TOKYO_R50_LONG TOKYO_R50_SHORT TOKYO_R30_DIR TOKYO_R30_LONG TOKYO_R30_SHORT TOKYO_LAND CMA_LAT CMA_LON CMA_CAT CMA_WIND CMA_PRES HKO_LAT HKO_LON HKO_CAT HKO_WIND HKO_PRES NEWDELHI_LAT NEWDELHI_LON NEWDELHI_GRADE NEWDELHI_WIND NEWDELHI_PRES NEWDELHI_CI NEWDELHI_DP NEWDELHI_POCI REUNION_LAT REUNION_LON REUNION_TYPE REUNION_WIND REUNION_PRES REUNION_TNUM REUNION_CI REUNION_RMW REUNION_R34_NE REUNION_R34_SE REUNION_R34_SW REUNION_R34_NW REUNION_R50_NE REUNION_R50_SE REUNION_R50_SW REUNION_R50_NW REUNION_R64_NE REUNION_R64_SE REUNION_R64_SW REUNION_R64_NW BOM_LAT BOM_LON BOM_TYPE BOM_WIND BOM_PRES BOM_TNUM BOM_CI BOM_RMW BOM_R34_NE BOM_R34_SE BOM_R34_SW BOM_R34_NW BOM_R50_NE BOM_R50_SE BOM_R50_SW BOM_R50_NW BOM_R64_NE BOM_R64_SE BOM_R64_SW BOM_R64_NW BOM_ROCI BOM_POCI BOM_EYE BOM_POS_METHOD BOM_PRES_METHOD NADI_LAT NADI_LON NADI_CAT NADI_WIND NADI_PRES WELLINGTON_LAT WELLINGTON_LON WELLINGTON_WIND WELLINGTON_PRES DS824_LAT DS824_LON DS824_STAGE DS824_WIND DS824_PRES TD9636_LAT TD9636_LON TD9636_STAGE TD9636_WIND TD9636_PRES TD9635_LAT TD9635_LON TD9635_WIND TD9635_PRES TD9635_ROCI NEUMANN_LAT NEUMANN_LON NEUMANN_CLASS NEUMANN_WIND NEUMANN_PRES MLC_LAT MLC_LON MLC_CLASS MLC_WIND MLC_PRES USA_GUST BOM_GUST BOM_GUST_PER REUNION_GUST REUNION_GUST_PER USA_SEAHGT USA_SEARAD_NE USA_SEARAD_SE USA_SEARAD_SW USA_SEARAD_NW STORM_SPEED STORM_DIR
1939121N08133 1939 25 WP MM NOT_NAMED 1939-05-01 10:00:00 NR 8.10000 132.900 main 695 663 __________O___ -1 8.10000 132.900 7 9 292
1939121N08133 1939 25 WP MM NOT_NAMED 1939-05-01 12:00:00 NR 8.21329 132.622 main 663 622 __________P___ -1 8.21329 132.622 7 9 292
1939121N08133 1939 25 WP MM NOT_NAMED 1939-05-01 15:00:00 NR 8.37805 132.216 main 622 579 __________P___ -1 8.37805 132.216 7 8 292
1939121N08133 1939 25 WP MM NOT_NAMED 1939-05-01 18:00:00 NR 8.53000 131.836 main 579 549 __________P___ -1 8.53000 131.836 7 8 292
1939121N08133 1939 25 WP MM NOT_NAMED 1939-05-01 21:00:00 NR 8.66181 131.500 main 551 540 __________P___ -1 8.66181 131.500 7 7 292
1939121N08133 1939 25 WP MM NOT_NAMED 1939-05-01 22:00:00 NR 8.70000 131.400 main 540 521 __________O___ -1 8.70000 131.400 7 6 291
1939121N08133 1939 25 WP MM NOT_NAMED 1939-05-02 00:00:00 NR 8.76699 131.221 main 521 500 __________P___ -1 8.76699 131.221 7 5 291
1939121N08133 1939 25 WP MM NOT_NAMED 1939-05-02 03:00:00 NR 8.84867 130.997 main 500 481 __________P___ -1 8.84867 130.997 7 4 290
1939121N08133 1939 25 WP MM NOT_NAMED 1939-05-02 06:00:00 NR 8.91612 130.813 main 481 471 __________P___ -1 8.91612 130.813 7 4 291
1939121N08133 1939 25 WP MM NOT_NAMED 1939-05-02 09:00:00 NR 8.97865 130.651 main 474 463 __________P___ -1 8.97865 130.651 7 3 292
1939121N08133 1939 25 WP MM NOT_NAMED 1939-05-02 10:00:00 NR 9.00000 130.600 main 463 453 __________O___ -1 9.00000 130.600 7 3 295
1939121N08133 1939 25 WP MM NOT_NAMED 1939-05-02 12:00:00 NR 9.04994 130.494 main 453 436 __________P___ -1 9.04994 130.494 7 3 297
1939121N08133 1939 25 WP MM NOT_NAMED 1939-05-02 15:00:00 NR 9.12490 130.347 main 436 429 __________P___ -1 9.12490 130.347 7 3 298
1939121N08133 1939 25 WP MM NOT_NAMED 1939-05-02 18:00:00 NR 9.19991 130.205 main 429 419 __________P___ -1 9.19991 130.205 7 3 298
1939121N08133 1939 25 WP MM NOT_NAMED 1939-05-02 21:00:00 NR 9.27497 130.054 main 421 410 __________P___ -1 9.27497 130.054 7 3 297
1939121N08133 1939 25 WP MM NOT_NAMED 1939-05-02 22:00:00 NR 9.30000 130.000 main 410 399 __________O___ -1 9.30000 130.000 7 4 295
1939121N08133 1939 25 WP MM NOT_NAMED 1939-05-03 00:00:00 NR 9.35259 129.886 main 401 379 __________P___ -1 9.35259 129.886 7 4 294
1939121N08133 1939 25 WP MM NOT_NAMED 1939-05-03 03:00:00 NR 9.43154 129.702 main 379 360 __________P___ -1 9.43154 129.702 7 4 292
1939121N08133 1939 25 WP MM NOT_NAMED 1939-05-03 06:00:00 NR 9.50782 129.501 main 360 341 __________P___ -1 9.50782 129.501 7 4 289
1939121N08133 1939 25 WP MM NOT_NAMED 1939-05-03 09:00:00 NR 9.57832 129.279 main 341 330 __________P___ -1 9.57832 129.279 7 5 287
1939121N08133 1939 25 WP MM NOT_NAMED 1939-05-03 10:00:00 NR 9.60000 129.200 main 330 309 __________O___ -1 9.60000 129.200 7 5 284
1939121N08133 1939 25 WP MM NOT_NAMED 1939-05-03 12:00:00 NR 9.63632 129.049 main 309 290 __________P___ -1 9.63632 129.049 7 5 282
1939121N08133 1939 25 WP MM NOT_NAMED 1939-05-03 15:00:00 NR 9.68446 128.805 main 290 258 __________P___ -1 9.68446 128.805 7 5 280
1939121N08133 1939 25 WP MM NOT_NAMED 1939-05-03 18:00:00 NR 9.73062 128.530 main 258 229 __________P___ -1 9.73062 128.530 7 6 279
1939121N08133 1939 25 WP MM NOT_NAMED 1939-05-03 21:00:00 NR 9.78112 128.215 main 229 219 __________P___ -1 9.78112 128.215 7 6 279
1939121N08133 1939 25 WP MM NOT_NAMED 1939-05-03 22:00:00 NR 9.80000 128.100 main 219 198 __________O___ -1 9.80000 128.100 7 6 275
1939121N08133 1939 25 WP MM NOT_NAMED 1939-05-04 00:00:00 NR 9.80957 127.905 main 198 167 __________P___ -1 9.80957 127.905 7 6 273
1939121N08133 1939 25 WP MM NOT_NAMED 1939-05-04 03:00:00 NR 9.82956 127.576 main 167 134 __________P___ -1 9.82956 127.576 7 7 276
1939121N08133 1939 25 WP MM NOT_NAMED 1939-05-04 06:00:00 NR 9.89026 127.163 main 134 86 __________P___ -1 9.89026 127.163 7 10 282
1939121N08133 1939 25 WP MM NOT_NAMED 1939-05-04 09:00:00 NR 10.0296 126.619 main 86 80 __________P___ -1 10.0296 126.619 7 12 286
1939121N08133 1939 25 WP MM NOT_NAMED 1939-05-04 10:00:00 NR 10.1000 126.400 main 80 54 __________O___ -1 10.1000 126.400 2 17 289
1939121N08133 1939 25 WP MM NOT_NAMED 1939-05-04 12:00:00 NR 10.3182 125.789 main 54 0 __________P___ -1 10.3182 125.789 2 21 291
1939121N08133 1939 25 WP MM NOT_NAMED 1939-05-04 15:00:00 NR 10.7271 124.737 main 10 0 __________P___ -1 10.7271 124.737 2 22 292
1939121N08133 1939 25 WP MM NOT_NAMED 1939-05-04 18:00:00 NR 11.1712 123.684 main 21 0 __________P___ -1 11.1712 123.684 2 21 294
1939121N08133 1939 25 WP MM NOT_NAMED 1939-05-04 21:00:00 NR 11.5820 122.816 main 11 11 __________P___ -1 11.5820 122.816 2 18 296
1939121N08133 1939 25 WP MM NOT_NAMED 1939-05-04 22:00:00 NR 11.7000 122.600 main 15 10 __________O___ -1 11.7000 122.600 4 10 304
1939121N08133 1939 25 WP MM NOT_NAMED 1939-05-05 00:00:00 NR 11.8691 122.379 main 22 15 __________P___ -1 11.8691 122.379 4 6 321
1939121N08133 1939 25 WP MM NOT_NAMED 1939-05-05 03:00:00 NR 12.0677 122.289 main 35 35 __________P___ -1 12.0677 122.289 4 4 4
1939121N08133 1939 25 WP MM NOT_NAMED 1939-05-05 06:00:00 NR 12.2219 122.384 main 49 49 __________P___ -1 12.2219 122.384 4 4 41
1939121N08133 1939 25 WP MM NOT_NAMED 1939-05-05 09:00:00 NR 12.3558 122.550 main 74 68 __________P___ -1 12.3558 122.550 4 4 49
1939121N08133 1939 25 WP MM NOT_NAMED 1939-05-05 10:00:00 NR 12.4000 122.600 main 68 68 __________O___ -1 12.4000 122.600 4 3 25
1939121N08133 1939 25 WP MM NOT_NAMED 1939-05-05 12:00:00 NR 12.4690 122.608 main 73 67 __________P___ -1 12.4690 122.608 4 2 0
1939121N08133 1939 25 WP MM NOT_NAMED 1939-05-05 15:00:00 NR 12.5654 122.627 main 67 55 __________P___ -1 12.5654 122.627 4 2 12
1939121N08133 1939 25 WP MM NOT_NAMED 1939-05-05 18:00:00 NR 12.6948 122.653 main 55 33 __________P___ -1 12.6948 122.653 4 3 8
1939121N08133 1939 25 WP MM NOT_NAMED 1939-05-05 21:00:00 NR 12.9043 122.687 main 33 22 __________P___ -1 12.9043 122.687 4 5 5
1939121N08133 1939 25 WP MM NOT_NAMED 1939-05-05 22:00:00 NR 13.0000 122.700 main 22 0 __________O___ -1 13.0000 122.700 4 7 9
1939121N08133 1939 25 WP MM NOT_NAMED 1939-05-06 00:00:00 NR 13.2534 122.743 main 0 0 __________P___ -1 13.2534 122.743 4 9 9
1939121N08133 1939 25 WP MM NOT_NAMED 1939-05-06 03:00:00 NR 13.7219 122.814 main 0 0 __________P___ -1 13.7219 122.814 4 10 7
1939121N08133 1939 25 WP MM NOT_NAMED 1939-05-06 06:00:00 NR 14.2574 122.875 main 11 11 __________P___ -1 14.2574 122.875 4 11 5
1939121N08133 1939 25 WP MM NOT_NAMED 1939-05-06 09:00:00 NR 14.8161 122.902 main 67 67 __________P___ -1 14.8161 122.902 4 11 0
1939121N08133 1939 25 WP MM NOT_NAMED 1939-05-06 10:00:00 NR 15.0000 122.900 main 89 89 __________O___ -1 15.0000 122.900 4 10 355
1939121N08133 1939 25 WP MM NOT_NAMED 1939-05-06 12:00:00 NR 15.3333 122.868 main 123 78 __________P___ -1 15.3333 122.868 4 10 352
1939121N08133 1939 25 WP MM NOT_NAMED 1939-05-06 15:00:00 NR 15.8334 122.782 main 78 53 __________P___ -1 15.8334 122.782 4 10 349
1939121N08133 1939 25 WP MM NOT_NAMED 1939-05-06 18:00:00 NR 16.3334 122.666 main 53 10 __________P___ -1 16.3334 122.666 4 10 347
1939121N08133 1939 25 WP MM NOT_NAMED 1939-05-06 21:00:00 NR 16.8333 122.541 main 10 0 __________P___ -1 16.8333 122.541 4 10 347
1939121N08133 1939 25 WP MM NOT_NAMED 1939-05-06 22:00:00 NR 17.0000 122.500 main 0 0 __________O___ -1 17.0000 122.500 4 10 346
1939121N08133 1939 25 WP MM NOT_NAMED 1939-05-07 00:00:00 NR 17.3333 122.408 main 0 11 __________P___ -1 17.3333 122.408 4 10 345
1939121N08133 1939 25 WP MM NOT_NAMED 1939-05-07 03:00:00 NR 17.8333 122.268 main 21 0 __________P___ -1 17.8333 122.268 4 10 346
1939121N08133 1939 25 WP MM NOT_NAMED 1939-05-07 06:00:00 NR 18.3333 122.155 main 0 0 __________P___ -1 18.3333 122.155 4 10 351
1939121N08133 1939 25 WP MM NOT_NAMED 1939-05-07 09:00:00 NR 18.8333 122.100 main 44 55 __________P___ -1 18.8333 122.100 4 10 355
1939121N08133 1939 25 WP MM NOT_NAMED 1939-05-07 10:00:00 NR 19.0000 122.100 main 67 67 __________O___ -1 19.0000 122.100 4 10 0
1939121N08133 1939 25 WP MM NOT_NAMED 1939-05-07 12:00:00 NR 19.3275 122.091 main 100 111 __________P___ -1 19.3275 122.091 4 10 3
1939121N08133 1939 25 WP MM NOT_NAMED 1939-05-07 15:00:00 NR 19.8187 122.140 main 156 156 __________P___ -1 19.8187 122.140 4 10 11
1939121N08133 1939 25 WP MM NOT_NAMED 1939-05-07 18:00:00 NR 20.3160 122.290 main 212 206 __________P___ -1 20.3160 122.290 4 11 22
1939121N08133 1939 25 WP MM NOT_NAMED 1939-05-07 21:00:00 NR 20.8260 122.572 main 214 208 __________P___ -1 20.8260 122.572 4 12 29
1939121N08133 1939 25 WP MM NOT_NAMED 1939-05-07 22:00:00 NR 21.0000 122.700 main 211 206 __________O___ -1 21.0000 122.700 4 13 38
1939121N08133 1939 25 WP MM NOT_NAMED 1939-05-08 00:00:00 NR 21.3478 123.006 main 227 224 __________P___ -1 21.3478 123.006 4 15 43
1939121N08133 1939 25 WP MM NOT_NAMED 1939-05-08 03:00:00 NR 21.8816 123.591 main 262 262 __________P___ -1 21.8816 123.591 4 16 48
1939121N08133 1939 25 WP MM NOT_NAMED 1939-05-08 06:00:00 NR 22.4326 124.286 main 307 304 __________P___ -1 22.4326 124.286 4 18 50
1939121N08133 1939 25 WP MM NOT_NAMED 1939-05-08 09:00:00 NR 23.0042 125.043 main 357 361 __________P___ -1 23.0042 125.043 4 18 51
1939121N08133 1939 25 WP MM NOT_NAMED 1939-05-08 10:00:00 NR 23.2000 125.300 main 374 374 __________O___ -1 23.2000 125.300 4 19 50
1939121N08133 1939 25 WP MM NOT_NAMED 1939-05-08 12:00:00 NR 23.6001 125.815 main 408 415 __________P___ -1 23.6001 125.815 4 19 49
1939121N08133 1939 25 WP MM NOT_NAMED 1939-05-08 15:00:00 NR 24.2177 126.586 main 473 471 __________P___ -1 24.2177 126.586 4 19 48
1939121N08133 1939 25 WP MM NOT_NAMED 1939-05-08 18:00:00 NR 24.8494 127.360 main 544 544 __________P___ -1 24.8494 127.360 4 19 48
1939121N08133 1939 25 WP MM NOT_NAMED 1939-05-08 21:00:00 NR 25.4874 128.139 main 615 625 __________P___ -1 25.4874 128.139 4 19 48
1939121N08133 1939 25 WP MM NOT_NAMED 1939-05-08 22:00:00 NR 25.7000 128.400 main 632 __________O___ -1 25.7000 128.400 4 19 48

Digital Typhoon Data and Search

About IBTrACS Database

This database is a web-friendly format of International Best Track Archive for Climate Stewardship (IBTrACS), a global best track data archive curated by NOAA dating back to 1842.

Updated: 2021-12-01